sensor_id;sensor_type;location;lat;lon;timestamp;P1;durP1;ratioP1;P2;durP2;ratioP2
14342;SDS011;7255;53.596;9.960;2023-04-03T00:02:19;4.10;;;3.67;;
14342;SDS011;7255;53.596;9.960;2023-04-03T00:04:45;6.17;;;4.37;;
14342;SDS011;7255;53.596;9.960;2023-04-03T00:07:12;4.47;;;4.03;;
14342;SDS011;7255;53.596;9.960;2023-04-03T00:09:41;5.10;;;4.00;;
14342;SDS011;7255;53.596;9.960;2023-04-03T00:12:07;7.17;;;4.30;;
14342;SDS011;7255;53.596;9.960;2023-04-03T00:14:33;6.37;;;4.27;;
14342;SDS011;7255;53.596;9.960;2023-04-03T00:16:59;8.80;;;4.00;;
14342;SDS011;7255;53.596;9.960;2023-04-03T00:19:26;7.30;;;3.93;;
14342;SDS011;7255;53.596;9.960;2023-04-03T00:21:52;9.30;;;4.00;;
14342;SDS011;7255;53.596;9.960;2023-04-03T00:24:19;5.13;;;3.90;;
14342;SDS011;7255;53.596;9.960;2023-04-03T00:26:46;4.53;;;3.90;;
14342;SDS011;7255;53.596;9.960;2023-04-03T00:29:13;6.07;;;3.97;;
14342;SDS011;7255;53.596;9.960;2023-04-03T00:31:39;5.17;;;3.67;;
14342;SDS011;7255;53.596;9.960;2023-04-03T00:34:06;8.93;;;4.00;;
14342;SDS011;7255;53.596;9.960;2023-04-03T00:36:32;6.97;;;3.93;;
14342;SDS011;7255;53.596;9.960;2023-04-03T00:38:59;12.50;;;4.40;;
14342;SDS011;7255;53.596;9.960;2023-04-03T00:41:25;7.00;;;4.30;;
14342;SDS011;7255;53.596;9.960;2023-04-03T00:43:53;7.50;;;4.03;;
14342;SDS011;7255;53.596;9.960;2023-04-03T00:46:19;6.17;;;4.10;;
14342;SDS011;7255;53.596;9.960;2023-04-03T00:48:46;4.90;;;4.20;;
14342;SDS011;7255;53.596;9.960;2023-04-03T00:51:14;6.80;;;4.00;;
14342;SDS011;7255;53.596;9.960;2023-04-03T00:53:46;9.83;;;3.80;;
14342;SDS011;7255;53.596;9.960;2023-04-03T00:56:15;6.77;;;3.83;;
14342;SDS011;7255;53.596;9.960;2023-04-03T00:58:44;11.80;;;4.67;;
14342;SDS011;7255;53.596;9.960;2023-04-03T01:01:17;7.23;;;4.33;;
14342;SDS011;7255;53.596;9.960;2023-04-03T01:03:47;10.57;;;4.50;;
14342;SDS011;7255;53.596;9.960;2023-04-03T01:06:14;6.37;;;4.00;;
14342;SDS011;7255;53.596;9.960;2023-04-03T01:08:42;9.63;;;4.13;;
14342;SDS011;7255;53.596;9.960;2023-04-03T01:11:11;6.90;;;4.83;;
14342;SDS011;7255;53.596;9.960;2023-04-03T01:13:38;5.83;;;3.80;;
14342;SDS011;7255;53.596;9.960;2023-04-03T01:16:05;6.90;;;4.07;;
14342;SDS011;7255;53.596;9.960;2023-04-03T01:18:34;7.90;;;4.40;;
14342;SDS011;7255;53.596;9.960;2023-04-03T01:21:14;6.13;;;4.27;;
14342;SDS011;7255;53.596;9.960;2023-04-03T01:24:18;8.50;;;4.60;;
14342;SDS011;7255;53.596;9.960;2023-04-03T01:26:52;8.27;;;4.50;;
14342;SDS011;7255;53.596;9.960;2023-04-03T01:29:18;11.17;;;4.67;;
14342;SDS011;7255;53.596;9.960;2023-04-03T01:31:47;7.93;;;4.47;;
14342;SDS011;7255;53.596;9.960;2023-04-03T01:34:15;4.80;;;4.40;;
14342;SDS011;7255;53.596;9.960;2023-04-03T01:36:41;5.27;;;4.47;;
14342;SDS011;7255;53.596;9.960;2023-04-03T01:39:08;8.57;;;4.90;;
14342;SDS011;7255;53.596;9.960;2023-04-03T01:41:34;8.60;;;5.10;;
14342;SDS011;7255;53.596;9.960;2023-04-03T01:44:01;6.23;;;4.30;;
14342;SDS011;7255;53.596;9.960;2023-04-03T01:46:28;5.40;;;4.27;;
14342;SDS011;7255;53.596;9.960;2023-04-03T01:48:56;8.93;;;4.70;;
14342;SDS011;7255;53.596;9.960;2023-04-03T01:51:24;6.20;;;4.03;;
14342;SDS011;7255;53.596;9.960;2023-04-03T01:53:50;7.13;;;4.80;;
14342;SDS011;7255;53.596;9.960;2023-04-03T01:56:16;7.13;;;4.73;;
14342;SDS011;7255;53.596;9.960;2023-04-03T01:58:42;7.23;;;4.27;;
14342;SDS011;7255;53.596;9.960;2023-04-03T02:01:09;4.83;;;4.20;;
14342;SDS011;7255;53.596;9.960;2023-04-03T02:03:35;4.60;;;4.20;;
14342;SDS011;7255;53.596;9.960;2023-04-03T02:06:03;7.67;;;4.53;;
14342;SDS011;7255;53.596;9.960;2023-04-03T02:08:30;7.13;;;4.73;;
14342;SDS011;7255;53.596;9.960;2023-04-03T02:10:56;7.90;;;4.47;;
14342;SDS011;7255;53.596;9.960;2023-04-03T02:13:23;6.90;;;5.07;;
14342;SDS011;7255;53.596;9.960;2023-04-03T02:15:49;8.83;;;4.70;;
14342;SDS011;7255;53.596;9.960;2023-04-03T02:18:15;9.63;;;4.70;;
14342;SDS011;7255;53.596;9.960;2023-04-03T02:20:42;5.60;;;4.73;;
14342;SDS011;7255;53.596;9.960;2023-04-03T02:23:09;5.07;;;4.50;;
14342;SDS011;7255;53.596;9.960;2023-04-03T02:25:36;8.27;;;5.53;;
14342;SDS011;7255;53.596;9.960;2023-04-03T02:28:02;6.33;;;4.63;;
14342;SDS011;7255;53.596;9.960;2023-04-03T02:30:28;12.93;;;5.30;;
14342;SDS011;7255;53.596;9.960;2023-04-03T02:32:55;10.83;;;4.97;;
14342;SDS011;7255;53.596;9.960;2023-04-03T02:35:21;7.77;;;5.30;;
14342;SDS011;7255;53.596;9.960;2023-04-03T02:37:47;7.43;;;5.03;;
14342;SDS011;7255;53.596;9.960;2023-04-03T02:40:16;5.53;;;4.53;;
14342;SDS011;7255;53.596;9.960;2023-04-03T02:42:43;5.03;;;4.50;;
14342;SDS011;7255;53.596;9.960;2023-04-03T02:45:10;8.00;;;4.23;;
14342;SDS011;7255;53.596;9.960;2023-04-03T02:47:36;9.67;;;5.13;;
14342;SDS011;7255;53.596;9.960;2023-04-03T02:50:03;6.10;;;4.37;;
14342;SDS011;7255;53.596;9.960;2023-04-03T02:52:30;6.33;;;4.67;;
14342;SDS011;7255;53.596;9.960;2023-04-03T02:54:56;12.57;;;5.20;;
14342;SDS011;7255;53.596;9.960;2023-04-03T02:57:24;10.40;;;5.03;;
14342;SDS011;7255;53.596;9.960;2023-04-03T02:59:50;8.70;;;4.83;;
14342;SDS011;7255;53.596;9.960;2023-04-03T03:02:17;11.80;;;5.30;;
14342;SDS011;7255;53.596;9.960;2023-04-03T03:04:43;7.27;;;4.83;;
14342;SDS011;7255;53.596;9.960;2023-04-03T03:07:09;5.87;;;4.70;;
14342;SDS011;7255;53.596;9.960;2023-04-03T03:09:36;6.80;;;4.17;;
14342;SDS011;7255;53.596;9.960;2023-04-03T03:12:02;7.30;;;4.80;;
14342;SDS011;7255;53.596;9.960;2023-04-03T03:14:31;6.20;;;4.50;;
14342;SDS011;7255;53.596;9.960;2023-04-03T03:16:57;11.10;;;5.77;;
14342;SDS011;7255;53.596;9.960;2023-04-03T03:19:23;8.07;;;5.30;;
14342;SDS011;7255;53.596;9.960;2023-04-03T03:21:50;8.43;;;5.07;;
14342;SDS011;7255;53.596;9.960;2023-04-03T03:24:17;7.73;;;4.67;;
14342;SDS011;7255;53.596;9.960;2023-04-03T03:26:43;9.13;;;4.93;;
14342;SDS011;7255;53.596;9.960;2023-04-03T03:29:09;12.20;;;5.37;;
14342;SDS011;7255;53.596;9.960;2023-04-03T03:31:37;8.17;;;4.87;;
14342;SDS011;7255;53.596;9.960;2023-04-03T03:34:04;7.67;;;5.30;;
14342;SDS011;7255;53.596;9.960;2023-04-03T03:36:30;7.57;;;4.83;;
14342;SDS011;7255;53.596;9.960;2023-04-03T03:38:56;5.00;;;4.60;;
14342;SDS011;7255;53.596;9.960;2023-04-03T03:41:23;7.47;;;5.50;;
14342;SDS011;7255;53.596;9.960;2023-04-03T03:43:49;7.93;;;5.17;;
14342;SDS011;7255;53.596;9.960;2023-04-03T03:46:15;7.37;;;5.57;;
14342;SDS011;7255;53.596;9.960;2023-04-03T03:48:43;10.57;;;5.53;;
14342;SDS011;7255;53.596;9.960;2023-04-03T03:51:09;10.83;;;5.37;;
14342;SDS011;7255;53.596;9.960;2023-04-03T03:53:36;10.13;;;4.93;;
14342;SDS011;7255;53.596;9.960;2023-04-03T03:56:03;10.70;;;5.73;;
14342;SDS011;7255;53.596;9.960;2023-04-03T03:58:30;9.43;;;5.30;;
14342;SDS011;7255;53.596;9.960;2023-04-03T04:00:57;5.77;;;4.47;;
14342;SDS011;7255;53.596;9.960;2023-04-03T04:03:26;6.47;;;4.73;;
14342;SDS011;7255;53.596;9.960;2023-04-03T04:05:54;5.83;;;5.10;;
14342;SDS011;7255;53.596;9.960;2023-04-03T04:08:20;10.83;;;4.90;;
14342;SDS011;7255;53.596;9.960;2023-04-03T04:10:46;13.57;;;5.20;;
14342;SDS011;7255;53.596;9.960;2023-04-03T04:13:12;10.80;;;5.37;;
14342;SDS011;7255;53.596;9.960;2023-04-03T04:15:39;8.37;;;5.57;;
14342;SDS011;7255;53.596;9.960;2023-04-03T04:18:05;9.37;;;5.47;;
14342;SDS011;7255;53.596;9.960;2023-04-03T04:20:32;8.30;;;5.17;;
14342;SDS011;7255;53.596;9.960;2023-04-03T04:22:59;14.33;;;6.00;;
14342;SDS011;7255;53.596;9.960;2023-04-03T04:25:26;9.53;;;5.87;;
14342;SDS011;7255;53.596;9.960;2023-04-03T04:27:52;7.77;;;5.50;;
14342;SDS011;7255;53.596;9.960;2023-04-03T04:30:18;9.70;;;4.60;;
14342;SDS011;7255;53.596;9.960;2023-04-03T04:32:45;6.37;;;4.47;;
14342;SDS011;7255;53.596;9.960;2023-04-03T04:35:11;9.93;;;5.17;;
14342;SDS011;7255;53.596;9.960;2023-04-03T04:37:38;8.80;;;5.10;;
14342;SDS011;7255;53.596;9.960;2023-04-03T04:40:06;8.73;;;5.13;;
14342;SDS011;7255;53.596;9.960;2023-04-03T04:42:33;12.50;;;5.17;;
14342;SDS011;7255;53.596;9.960;2023-04-03T04:45:00;7.57;;;5.13;;
14342;SDS011;7255;53.596;9.960;2023-04-03T04:47:27;10.70;;;5.33;;
14342;SDS011;7255;53.596;9.960;2023-04-03T04:49:54;7.57;;;5.33;;
14342;SDS011;7255;53.596;9.960;2023-04-03T04:52:20;7.97;;;5.27;;
14342;SDS011;7255;53.596;9.960;2023-04-03T04:54:47;8.07;;;5.60;;
14342;SDS011;7255;53.596;9.960;2023-04-03T04:57:14;8.23;;;5.50;;
14342;SDS011;7255;53.596;9.960;2023-04-03T04:59:41;6.77;;;5.67;;
14342;SDS011;7255;53.596;9.960;2023-04-03T05:02:07;7.30;;;4.67;;
14342;SDS011;7255;53.596;9.960;2023-04-03T05:04:33;9.90;;;5.20;;
14342;SDS011;7255;53.596;9.960;2023-04-03T05:06:59;7.60;;;5.70;;
14342;SDS011;7255;53.596;9.960;2023-04-03T05:09:26;9.70;;;5.40;;
14342;SDS011;7255;53.596;9.960;2023-04-03T05:11:52;9.17;;;5.33;;
14342;SDS011;7255;53.596;9.960;2023-04-03T05:14:20;8.47;;;5.47;;
14342;SDS011;7255;53.596;9.960;2023-04-03T05:16:46;7.57;;;5.53;;
14342;SDS011;7255;53.596;9.960;2023-04-03T05:19:13;7.13;;;5.20;;
14342;SDS011;7255;53.596;9.960;2023-04-03T05:21:39;7.07;;;5.43;;
14342;SDS011;7255;53.596;9.960;2023-04-03T05:24:06;7.57;;;6.00;;
14342;SDS011;7255;53.596;9.960;2023-04-03T05:26:34;9.47;;;5.23;;
14342;SDS011;7255;53.596;9.960;2023-04-03T05:29:00;12.60;;;5.97;;
14342;SDS011;7255;53.596;9.960;2023-04-03T05:31:28;7.33;;;6.40;;
14342;SDS011;7255;53.596;9.960;2023-04-03T05:33:55;5.97;;;5.33;;
14342;SDS011;7255;53.596;9.960;2023-04-03T05:36:21;9.70;;;5.80;;
14342;SDS011;7255;53.596;9.960;2023-04-03T05:38:48;13.20;;;5.80;;
14342;SDS011;7255;53.596;9.960;2023-04-03T05:41:15;7.57;;;5.93;;
14342;SDS011;7255;53.596;9.960;2023-04-03T05:43:41;6.50;;;5.17;;
14342;SDS011;7255;53.596;9.960;2023-04-03T05:46:09;6.87;;;6.10;;
14342;SDS011;7255;53.596;9.960;2023-04-03T05:48:38;7.90;;;5.60;;
14342;SDS011;7255;53.596;9.960;2023-04-03T05:51:05;11.33;;;5.90;;
14342;SDS011;7255;53.596;9.960;2023-04-03T05:53:33;12.07;;;6.30;;
14342;SDS011;7255;53.596;9.960;2023-04-03T05:56:02;8.90;;;5.20;;
14342;SDS011;7255;53.596;9.960;2023-04-03T05:58:29;9.53;;;5.70;;
14342;SDS011;7255;53.596;9.960;2023-04-03T06:00:55;10.17;;;5.93;;
14342;SDS011;7255;53.596;9.960;2023-04-03T06:03:22;11.03;;;6.20;;
14342;SDS011;7255;53.596;9.960;2023-04-03T06:05:50;10.23;;;6.70;;
14342;SDS011;7255;53.596;9.960;2023-04-03T06:08:16;10.00;;;6.40;;
14342;SDS011;7255;53.596;9.960;2023-04-03T06:10:42;12.43;;;6.60;;
14342;SDS011;7255;53.596;9.960;2023-04-03T06:13:09;8.87;;;6.27;;
14342;SDS011;7255;53.596;9.960;2023-04-03T06:15:35;9.67;;;6.43;;
14342;SDS011;7255;53.596;9.960;2023-04-03T06:18:02;7.40;;;6.37;;
14342;SDS011;7255;53.596;9.960;2023-04-03T06:20:28;10.17;;;6.53;;
14342;SDS011;7255;53.596;9.960;2023-04-03T06:22:57;11.73;;;5.87;;
14342;SDS011;7255;53.596;9.960;2023-04-03T06:25:23;8.17;;;6.53;;
14342;SDS011;7255;53.596;9.960;2023-04-03T06:27:50;10.77;;;6.03;;
14342;SDS011;7255;53.596;9.960;2023-04-03T06:30:16;8.90;;;6.17;;
14342;SDS011;7255;53.596;9.960;2023-04-03T06:32:43;7.30;;;5.37;;
14342;SDS011;7255;53.596;9.960;2023-04-03T06:35:09;12.70;;;5.17;;
14342;SDS011;7255;53.596;9.960;2023-04-03T06:37:36;11.63;;;5.50;;
14342;SDS011;7255;53.596;9.960;2023-04-03T06:40:04;7.20;;;5.30;;
14342;SDS011;7255;53.596;9.960;2023-04-03T06:42:31;14.53;;;5.60;;
14342;SDS011;7255;53.596;9.960;2023-04-03T06:44:58;9.67;;;5.63;;
14342;SDS011;7255;53.596;9.960;2023-04-03T06:47:25;10.63;;;4.63;;
14342;SDS011;7255;53.596;9.960;2023-04-03T06:49:51;8.93;;;5.07;;
14342;SDS011;7255;53.596;9.960;2023-04-03T06:52:18;5.83;;;5.07;;
14342;SDS011;7255;53.596;9.960;2023-04-03T06:54:44;8.40;;;5.10;;
14342;SDS011;7255;53.596;9.960;2023-04-03T06:57:12;10.10;;;5.50;;
14342;SDS011;7255;53.596;9.960;2023-04-03T06:59:38;8.00;;;4.57;;
14342;SDS011;7255;53.596;9.960;2023-04-03T07:02:05;7.70;;;3.60;;
14342;SDS011;7255;53.596;9.960;2023-04-03T07:04:32;6.37;;;4.00;;
14342;SDS011;7255;53.596;9.960;2023-04-03T07:06:58;5.30;;;3.10;;
14342;SDS011;7255;53.596;9.960;2023-04-03T07:09:24;5.27;;;3.27;;
14342;SDS011;7255;53.596;9.960;2023-04-03T07:11:51;7.00;;;3.53;;
14342;SDS011;7255;53.596;9.960;2023-04-03T07:14:19;4.50;;;3.07;;
14342;SDS011;7255;53.596;9.960;2023-04-03T07:16:46;7.17;;;3.20;;
14342;SDS011;7255;53.596;9.960;2023-04-03T07:19:12;5.73;;;3.30;;
14342;SDS011;7255;53.596;9.960;2023-04-03T07:21:39;5.40;;;2.40;;
14342;SDS011;7255;53.596;9.960;2023-04-03T07:24:07;2.73;;;2.53;;
14342;SDS011;7255;53.596;9.960;2023-04-03T07:26:33;4.10;;;2.10;;
14342;SDS011;7255;53.596;9.960;2023-04-03T07:29:00;4.73;;;2.60;;
14342;SDS011;7255;53.596;9.960;2023-04-03T07:31:28;3.00;;;2.43;;
14342;SDS011;7255;53.596;9.960;2023-04-03T07:33:54;4.23;;;2.57;;
14342;SDS011;7255;53.596;9.960;2023-04-03T07:36:21;4.30;;;2.20;;
14342;SDS011;7255;53.596;9.960;2023-04-03T07:38:49;4.90;;;2.47;;
14342;SDS011;7255;53.596;9.960;2023-04-03T07:41:16;3.47;;;2.40;;
14342;SDS011;7255;53.596;9.960;2023-04-03T07:43:44;4.73;;;2.23;;
14342;SDS011;7255;53.596;9.960;2023-04-03T07:46:11;3.43;;;2.27;;
14342;SDS011;7255;53.596;9.960;2023-04-03T07:48:39;2.20;;;1.93;;
14342;SDS011;7255;53.596;9.960;2023-04-03T07:51:06;4.97;;;2.63;;
14342;SDS011;7255;53.596;9.960;2023-04-03T07:53:32;2.70;;;2.47;;
14342;SDS011;7255;53.596;9.960;2023-04-03T07:55:59;6.23;;;2.33;;
14342;SDS011;7255;53.596;9.960;2023-04-03T07:58:27;3.70;;;2.33;;
14342;SDS011;7255;53.596;9.960;2023-04-03T08:00:54;5.27;;;2.30;;
14342;SDS011;7255;53.596;9.960;2023-04-03T08:03:21;4.37;;;2.20;;
14342;SDS011;7255;53.596;9.960;2023-04-03T08:05:49;4.73;;;2.53;;
14342;SDS011;7255;53.596;9.960;2023-04-03T08:08:16;3.60;;;2.23;;
14342;SDS011;7255;53.596;9.960;2023-04-03T08:10:45;3.73;;;2.53;;
14342;SDS011;7255;53.596;9.960;2023-04-03T08:13:14;3.53;;;2.77;;
14342;SDS011;7255;53.596;9.960;2023-04-03T08:15:41;2.60;;;1.87;;
14342;SDS011;7255;53.596;9.960;2023-04-03T08:18:08;7.23;;;2.97;;
14342;SDS011;7255;53.596;9.960;2023-04-03T08:20:34;4.30;;;2.33;;
14342;SDS011;7255;53.596;9.960;2023-04-03T08:23:02;3.83;;;2.17;;
14342;SDS011;7255;53.596;9.960;2023-04-03T08:25:28;4.90;;;2.53;;
14342;SDS011;7255;53.596;9.960;2023-04-03T08:27:55;4.93;;;2.80;;
14342;SDS011;7255;53.596;9.960;2023-04-03T08:30:22;2.53;;;2.33;;
14342;SDS011;7255;53.596;9.960;2023-04-03T08:32:48;7.57;;;2.43;;
14342;SDS011;7255;53.596;9.960;2023-04-03T08:35:15;2.57;;;2.20;;
14342;SDS011;7255;53.596;9.960;2023-04-03T08:37:41;1.97;;;1.83;;
14342;SDS011;7255;53.596;9.960;2023-04-03T08:40:11;3.73;;;2.40;;
14342;SDS011;7255;53.596;9.960;2023-04-03T08:42:41;2.80;;;2.20;;
14342;SDS011;7255;53.596;9.960;2023-04-03T08:45:17;3.23;;;2.10;;
14342;SDS011;7255;53.596;9.960;2023-04-03T08:47:51;3.47;;;2.40;;
14342;SDS011;7255;53.596;9.960;2023-04-03T08:50:23;4.07;;;2.20;;
14342;SDS011;7255;53.596;9.960;2023-04-03T08:52:55;4.13;;;2.30;;
14342;SDS011;7255;53.596;9.960;2023-04-03T08:55:25;2.57;;;1.80;;
14342;SDS011;7255;53.596;9.960;2023-04-03T08:57:57;4.80;;;2.00;;
14342;SDS011;7255;53.596;9.960;2023-04-03T09:00:28;5.60;;;2.23;;
14342;SDS011;7255;53.596;9.960;2023-04-03T09:03:00;2.40;;;2.20;;
14342;SDS011;7255;53.596;9.960;2023-04-03T09:05:30;4.77;;;1.90;;
14342;SDS011;7255;53.596;9.960;2023-04-03T09:08:04;4.17;;;1.83;;
14342;SDS011;7255;53.596;9.960;2023-04-03T09:10:37;2.80;;;2.10;;
14342;SDS011;7255;53.596;9.960;2023-04-03T09:13:06;3.90;;;1.73;;
14342;SDS011;7255;53.596;9.960;2023-04-03T09:15:39;3.33;;;2.23;;
14342;SDS011;7255;53.596;9.960;2023-04-03T09:18:09;3.40;;;2.03;;
14342;SDS011;7255;53.596;9.960;2023-04-03T09:20:43;2.40;;;2.03;;
14342;SDS011;7255;53.596;9.960;2023-04-03T09:23:18;2.33;;;2.00;;
14342;SDS011;7255;53.596;9.960;2023-04-03T09:25:50;1.93;;;1.67;;
14342;SDS011;7255;53.596;9.960;2023-04-03T09:28:20;4.17;;;2.23;;
14342;SDS011;7255;53.596;9.960;2023-04-03T09:30:46;2.60;;;2.00;;
14342;SDS011;7255;53.596;9.960;2023-04-03T09:33:12;4.50;;;2.23;;
14342;SDS011;7255;53.596;9.960;2023-04-03T09:35:40;2.17;;;1.97;;
14342;SDS011;7255;53.596;9.960;2023-04-03T09:38:17;4.40;;;2.10;;
14342;SDS011;7255;53.596;9.960;2023-04-03T09:40:47;2.47;;;1.63;;
14342;SDS011;7255;53.596;9.960;2023-04-03T09:43:24;5.63;;;2.00;;
14342;SDS011;7255;53.596;9.960;2023-04-03T09:45:53;2.43;;;1.40;;
14342;SDS011;7255;53.596;9.960;2023-04-03T09:48:22;1.60;;;1.50;;
14342;SDS011;7255;53.596;9.960;2023-04-03T09:50:56;3.93;;;1.80;;
14342;SDS011;7255;53.596;9.960;2023-04-03T09:53:26;2.17;;;1.80;;
14342;SDS011;7255;53.596;9.960;2023-04-03T09:55:55;2.80;;;1.67;;
14342;SDS011;7255;53.596;9.960;2023-04-03T09:58:25;2.20;;;2.00;;
14342;SDS011;7255;53.596;9.960;2023-04-03T10:00:55;2.70;;;1.60;;
14342;SDS011;7255;53.596;9.960;2023-04-03T10:03:24;4.10;;;1.70;;
14342;SDS011;7255;53.596;9.960;2023-04-03T10:05:53;1.97;;;1.77;;
14342;SDS011;7255;53.596;9.960;2023-04-03T10:08:21;2.43;;;1.43;;
14342;SDS011;7255;53.596;9.960;2023-04-03T10:11:05;2.10;;;1.90;;
14342;SDS011;7255;53.596;9.960;2023-04-03T10:13:35;2.53;;;1.80;;
14342;SDS011;7255;53.596;9.960;2023-04-03T10:16:01;4.50;;;1.80;;
14342;SDS011;7255;53.596;9.960;2023-04-03T10:18:37;3.73;;;1.90;;
14342;SDS011;7255;53.596;9.960;2023-04-03T10:21:13;1.77;;;1.67;;
14342;SDS011;7255;53.596;9.960;2023-04-03T10:23:46;2.33;;;1.80;;
14342;SDS011;7255;53.596;9.960;2023-04-03T10:26:19;2.73;;;1.80;;
14342;SDS011;7255;53.596;9.960;2023-04-03T10:28:57;2.50;;;1.67;;
14342;SDS011;7255;53.596;9.960;2023-04-03T10:31:31;4.47;;;2.00;;
14342;SDS011;7255;53.596;9.960;2023-04-03T10:34:04;3.43;;;1.83;;
14342;SDS011;7255;53.596;9.960;2023-04-03T10:36:34;1.70;;;1.60;;
14342;SDS011;7255;53.596;9.960;2023-04-03T10:39:10;1.97;;;1.70;;
14342;SDS011;7255;53.596;9.960;2023-04-03T10:41:46;2.83;;;1.90;;
14342;SDS011;7255;53.596;9.960;2023-04-03T10:44:26;2.00;;;1.80;;
14342;SDS011;7255;53.596;9.960;2023-04-03T10:47:04;3.93;;;1.70;;
14342;SDS011;7255;53.596;9.960;2023-04-03T10:49:41;3.73;;;1.63;;
14342;SDS011;7255;53.596;9.960;2023-04-03T10:52:17;1.40;;;1.30;;
14342;SDS011;7255;53.596;9.960;2023-04-03T10:54:49;2.60;;;1.47;;
14342;SDS011;7255;53.596;9.960;2023-04-03T10:57:24;2.87;;;1.60;;
14342;SDS011;7255;53.596;9.960;2023-04-03T10:59:55;3.13;;;1.63;;
14342;SDS011;7255;53.596;9.960;2023-04-03T11:02:24;2.13;;;1.53;;
14342;SDS011;7255;53.596;9.960;2023-04-03T11:04:53;3.43;;;1.57;;
14342;SDS011;7255;53.596;9.960;2023-04-03T11:07:25;2.53;;;1.80;;
14342;SDS011;7255;53.596;9.960;2023-04-03T11:09:56;1.58;;;1.45;;
14342;SDS011;7255;53.596;9.960;2023-04-03T11:12:28;2.22;;;1.75;;
14342;SDS011;7255;53.596;9.960;2023-04-03T11:15:04;3.80;;;1.60;;
14342;SDS011;7255;53.596;9.960;2023-04-03T11:17:33;2.58;;;1.77;;
14342;SDS011;7255;53.596;9.960;2023-04-03T11:20:06;3.08;;;2.00;;
14342;SDS011;7255;53.596;9.960;2023-04-03T11:22:41;2.67;;;1.60;;
14342;SDS011;7255;53.596;9.960;2023-04-03T11:25:14;1.65;;;1.50;;
14342;SDS011;7255;53.596;9.960;2023-04-03T11:27:46;3.57;;;1.70;;
14342;SDS011;7255;53.596;9.960;2023-04-03T11:30:17;3.87;;;1.95;;
14342;SDS011;7255;53.596;9.960;2023-04-03T11:35:59;3.70;;;1.50;;
14342;SDS011;7255;53.596;9.960;2023-04-03T11:38:30;3.30;;;1.67;;
14342;SDS011;7255;53.596;9.960;2023-04-03T11:41:01;2.55;;;1.50;;
14342;SDS011;7255;53.596;9.960;2023-04-03T11:43:29;2.22;;;1.58;;
14342;SDS011;7255;53.596;9.960;2023-04-03T11:45:58;2.47;;;2.00;;
14342;SDS011;7255;53.596;9.960;2023-04-03T11:48:48;2.35;;;1.67;;
14342;SDS011;7255;53.596;9.960;2023-04-03T11:51:40;2.30;;;1.50;;
14342;SDS011;7255;53.596;9.960;2023-04-03T12:09:22;2.95;;;1.77;;
14342;SDS011;7255;53.596;9.960;2023-04-03T12:11:52;2.90;;;1.73;;
14342;SDS011;7255;53.596;9.960;2023-04-03T12:14:20;2.17;;;1.40;;
14342;SDS011;7255;53.596;9.960;2023-04-03T12:16:49;2.78;;;1.40;;
14342;SDS011;7255;53.596;9.960;2023-04-03T12:19:30;2.05;;;1.85;;
14342;SDS011;7255;53.596;9.960;2023-04-03T12:22:09;1.50;;;1.35;;
14342;SDS011;7255;53.596;9.960;2023-04-03T12:24:37;3.25;;;1.90;;
14342;SDS011;7255;53.596;9.960;2023-04-03T12:27:09;2.50;;;2.00;;
14342;SDS011;7255;53.596;9.960;2023-04-03T12:29:51;4.72;;;1.58;;
14342;SDS011;7255;53.596;9.960;2023-04-03T12:32:24;4.47;;;1.80;;
14342;SDS011;7255;53.596;9.960;2023-04-03T12:35:05;5.57;;;1.83;;
14342;SDS011;7255;53.596;9.960;2023-04-03T12:37:48;2.00;;;1.40;;
14342;SDS011;7255;53.596;9.960;2023-04-03T12:40:25;3.40;;;1.60;;
14342;SDS011;7255;53.596;9.960;2023-04-03T12:45:53;1.85;;;1.40;;
14342;SDS011;7255;53.596;9.960;2023-04-03T12:48:27;3.10;;;1.90;;
14342;SDS011;7255;53.596;9.960;2023-04-03T12:50:55;2.70;;;1.83;;
14342;SDS011;7255;53.596;9.960;2023-04-03T12:53:24;2.67;;;1.80;;
14342;SDS011;7255;53.596;9.960;2023-04-03T12:55:53;2.03;;;1.60;;
14342;SDS011;7255;53.596;9.960;2023-04-03T12:58:21;3.47;;;1.80;;
14342;SDS011;7255;53.596;9.960;2023-04-03T13:00:58;3.00;;;1.70;;
14342;SDS011;7255;53.596;9.960;2023-04-03T13:03:26;2.42;;;1.75;;
14342;SDS011;7255;53.596;9.960;2023-04-03T13:05:54;3.00;;;1.50;;
14342;SDS011;7255;53.596;9.960;2023-04-03T13:08:24;1.50;;;1.40;;
14342;SDS011;7255;53.596;9.960;2023-04-03T13:10:52;3.42;;;1.67;;
14342;SDS011;7255;53.596;9.960;2023-04-03T13:13:22;1.58;;;1.40;;
14342;SDS011;7255;53.596;9.960;2023-04-03T13:15:49;3.80;;;2.17;;
14342;SDS011;7255;53.596;9.960;2023-04-03T13:18:24;2.97;;;1.62;;
14342;SDS011;7255;53.596;9.960;2023-04-03T13:20:53;2.67;;;1.37;;
14342;SDS011;7255;53.596;9.960;2023-04-03T13:23:27;2.17;;;1.65;;
14342;SDS011;7255;53.596;9.960;2023-04-03T13:25:54;1.75;;;1.35;;
14342;SDS011;7255;53.596;9.960;2023-04-03T13:28:25;3.95;;;2.20;;
14342;SDS011;7255;53.596;9.960;2023-04-03T13:31:00;2.40;;;1.50;;
14342;SDS011;7255;53.596;9.960;2023-04-03T13:33:31;1.95;;;1.30;;
14342;SDS011;7255;53.596;9.960;2023-04-03T13:36:03;2.42;;;1.48;;
14342;SDS011;7255;53.596;9.960;2023-04-03T13:38:33;3.37;;;2.03;;
14342;SDS011;7255;53.596;9.960;2023-04-03T13:41:03;5.72;;;1.83;;
14342;SDS011;7255;53.596;9.960;2023-04-03T13:43:33;2.42;;;1.20;;
14342;SDS011;7255;53.596;9.960;2023-04-03T13:46:05;3.60;;;1.50;;
14342;SDS011;7255;53.596;9.960;2023-04-03T13:48:48;2.85;;;1.42;;
14342;SDS011;7255;53.596;9.960;2023-04-03T13:51:17;3.03;;;1.62;;
14342;SDS011;7255;53.596;9.960;2023-04-03T13:53:49;2.28;;;1.70;;
14342;SDS011;7255;53.596;9.960;2023-04-03T13:56:19;2.55;;;1.50;;
14342;SDS011;7255;53.596;9.960;2023-04-03T13:58:58;2.25;;;1.45;;
14342;SDS011;7255;53.596;9.960;2023-04-03T14:01:32;2.65;;;1.60;;
14342;SDS011;7255;53.596;9.960;2023-04-03T14:04:09;2.03;;;1.35;;
14342;SDS011;7255;53.596;9.960;2023-04-03T14:06:39;2.37;;;1.58;;
14342;SDS011;7255;53.596;9.960;2023-04-03T14:09:07;3.30;;;1.60;;
14342;SDS011;7255;53.596;9.960;2023-04-03T14:11:33;1.42;;;1.33;;
14342;SDS011;7255;53.596;9.960;2023-04-03T14:14:02;2.15;;;1.50;;
14342;SDS011;7255;53.596;9.960;2023-04-03T14:16:32;3.72;;;1.55;;
14342;SDS011;7255;53.596;9.960;2023-04-03T14:19:03;2.17;;;1.77;;
14342;SDS011;7255;53.596;9.960;2023-04-03T14:21:29;1.70;;;1.40;;
14342;SDS011;7255;53.596;9.960;2023-04-03T14:23:55;2.62;;;1.55;;
14342;SDS011;7255;53.596;9.960;2023-04-03T14:26:23;4.18;;;1.62;;
14342;SDS011;7255;53.596;9.960;2023-04-03T14:28:52;2.33;;;1.60;;
14342;SDS011;7255;53.596;9.960;2023-04-03T14:31:20;4.05;;;1.73;;
14342;SDS011;7255;53.596;9.960;2023-04-03T14:33:49;2.92;;;1.70;;
14342;SDS011;7255;53.596;9.960;2023-04-03T14:36:17;2.85;;;1.58;;
14342;SDS011;7255;53.596;9.960;2023-04-03T14:38:45;1.83;;;1.40;;
14342;SDS011;7255;53.596;9.960;2023-04-03T14:41:14;2.28;;;1.60;;
14342;SDS011;7255;53.596;9.960;2023-04-03T14:43:44;2.65;;;1.58;;
14342;SDS011;7255;53.596;9.960;2023-04-03T14:46:12;4.78;;;1.75;;
14342;SDS011;7255;53.596;9.960;2023-04-03T14:48:41;3.03;;;2.08;;
14342;SDS011;7255;53.596;9.960;2023-04-03T14:51:08;3.33;;;1.60;;
14342;SDS011;7255;53.596;9.960;2023-04-03T14:53:36;1.92;;;1.58;;
14342;SDS011;7255;53.596;9.960;2023-04-03T14:56:04;2.53;;;1.75;;
14342;SDS011;7255;53.596;9.960;2023-04-03T14:58:35;2.92;;;1.85;;
14342;SDS011;7255;53.596;9.960;2023-04-03T15:01:03;1.75;;;1.58;;
14342;SDS011;7255;53.596;9.960;2023-04-03T15:03:30;3.25;;;1.70;;
14342;SDS011;7255;53.596;9.960;2023-04-03T15:05:57;1.62;;;1.48;;
14342;SDS011;7255;53.596;9.960;2023-04-03T15:08:24;3.10;;;2.00;;
14342;SDS011;7255;53.596;9.960;2023-04-03T15:10:54;2.78;;;1.75;;
14342;SDS011;7255;53.596;9.960;2023-04-03T15:13:21;2.22;;;1.83;;
14342;SDS011;7255;53.596;9.960;2023-04-03T15:15:49;3.30;;;1.77;;
14342;SDS011;7255;53.596;9.960;2023-04-03T15:18:18;2.33;;;1.73;;
14342;SDS011;7255;53.596;9.960;2023-04-03T15:20:47;5.12;;;1.85;;
14342;SDS011;7255;53.596;9.960;2023-04-03T15:23:14;2.42;;;1.73;;
14342;SDS011;7255;53.596;9.960;2023-04-03T15:25:42;1.58;;;1.42;;
14342;SDS011;7255;53.596;9.960;2023-04-03T15:28:09;4.15;;;1.87;;
14342;SDS011;7255;53.596;9.960;2023-04-03T15:30:44;2.65;;;1.70;;
14342;SDS011;7255;53.596;9.960;2023-04-03T15:33:10;3.28;;;1.98;;